Jennifer Turecamo — WDD4175 — position and weather

sailwx.info

Track history (hours):
 
Tides and Currents Weather Stations Pressure Air Temp Water Temp Dewpoint Dewpoint Depression Visibility Wind Speed Wind Dir Waves Ship Positions

Jennifer Turecamo

Owner: MORAN TOWING CORPORATION, New Canaan, CT. More information available from US FCC via Universal Licensing System and Coast Guard Vessel Documentation Center.

Last reported at 2017-Dec-15 04:30 UTC. Time now 2017-Dec-15 04:32 UTC.
Position N 40°39' W 074°05'.

Length 40 m; draft 5.3 m.

Type: Tug. MMSI: 367141250.

Date/timePositionNaut miles runAvg speedWind from/ knotsBaromVisibWave heightAir tempDewpointWater temp
2017-Dec-15 04:30N 40°39' W 074°05'1 1.9
2017-Dec-15 04:00N 40°40' W 074°04'0 0.3
2017-Dec-15 02:29N 40°40' W 074°04'0 0.0
2017-Dec-15 00:59N 40°40' W 074°04'0 0.0
2017-Dec-15 00:29N 40°40' W 074°04'1 0.3
2017-Dec-14 18:30N 40°39' W 074°03'0 0.1
2017-Dec-14 18:00N 40°39' W 074°03'0 0.1
2017-Dec-14 17:30N 40°39' W 074°03'0 0.0
2017-Dec-14 17:00N 40°39' W 074°03'0 0.1
2017-Dec-14 16:30N 40°39' W 074°03'0 0.0
2017-Dec-14 15:57N 40°39' W 074°03'0 0.0
2017-Dec-14 15:00N 40°39' W 074°03'0 0.0
2017-Dec-14 14:30N 40°39' W 074°03'0 0.1
2017-Dec-14 14:00N 40°39' W 074°03'0 0.2
2017-Dec-14 13:31N 40°39' W 074°03'2 2.8
2017-Dec-14 12:57N 40°40' W 074°04'0 0.0
2017-Dec-14 12:30N 40°40' W 074°04'0 0.0
2017-Dec-14 12:00N 40°40' W 074°04'0 0.0
2017-Dec-14 11:31N 40°40' W 074°04'0 0.0
2017-Dec-14 10:57N 40°40' W 074°04'0 0.0
2017-Dec-14 10:30N 40°40' W 074°04'0 0.3
2017-Dec-14 10:00N 40°40' W 074°04'0 0.0
2017-Dec-14 09:30N 40°40' W 074°04'0 0.0
2017-Dec-14 09:00N 40°40' W 074°04'0 0.0
2017-Dec-14 08:30N 40°40' W 074°04'0 0.0
2017-Dec-14 08:00N 40°40' W 074°04'0 0.0
2017-Dec-14 07:30N 40°40' W 074°04'0 0.0
2017-Dec-14 07:00N 40°40' W 074°04'0 0.0
2017-Dec-14 06:30N 40°40' W 074°04'0 0.0
2017-Dec-14 06:00N 40°40' W 074°04'0 0.0
2017-Dec-14 05:30N 40°40' W 074°04'0 0.0
2017-Dec-14 05:00N 40°40' W 074°04'0 0.0
2017-Dec-14 04:30N 40°40' W 074°04'1 2.1
2017-Dec-14 04:01N 40°39' W 074°04'1 1.6
2017-Dec-14 03:30N 40°39' W 074°05'0 1.0
2017-Dec-14 03:00N 40°39' W 074°05'1 1.3
2017-Dec-14 02:29N 40°40' W 074°04'0 0.0
2017-Dec-14 01:59N 40°40' W 074°04'0 0.0
2017-Dec-14 01:29N 40°40' W 074°04'0 0.0
2017-Dec-14 00:59N 40°40' W 074°04'0 0.0
2017-Dec-14 00:31N 40°40' W 074°04'3 5.9
2017-Dec-14 00:00N 40°39' W 074°08'4 7.6
2017-Dec-13 23:30N 40°39' W 074°03'0 0.5
2017-Dec-13 22:59N 40°40' W 074°03'0 0.0
2017-Dec-13 22:29N 40°40' W 074°03'0 0.0
2017-Dec-13 21:59N 40°40' W 074°03'0 0.0
2017-Dec-13 21:29N 40°39' W 074°03'0 0.0
2017-Dec-13 20:59N 40°40' W 074°03'0 0.0
2017-Dec-13 20:29N 40°39' W 074°03'0 0.0
2017-Dec-13 19:56N 40°39' W 074°03'0 0.0
2017-Dec-13 19:29N 40°39' W 074°03'0 0.0
2017-Dec-13 18:59N 40°39' W 074°03'0 0.0
2017-Dec-13 18:29N 40°39' W 074°03'0 0.0
2017-Dec-13 17:59N 40°39' W 074°03'0 0.0
2017-Dec-13 17:29N 40°39' W 074°03'0 0.0
2017-Dec-13 16:59N 40°39' W 074°03'0 0.0
2017-Dec-13 16:29N 40°39' W 074°03'0 0.0
2017-Dec-13 15:59N 40°39' W 074°03'0 0.0
2017-Dec-13 15:29N 40°39' W 074°03'0 0.0
2017-Dec-13 14:59N 40°39' W 074°03'0 0.0
2017-Dec-13 14:29N 40°39' W 074°03'0 0.0
2017-Dec-13 13:56N 40°39' W 074°03'0 0.0
2017-Dec-13 13:26N 40°39' W 074°03'0 0.0
2017-Dec-13 12:56N 40°39' W 074°03'0 0.0
2017-Dec-13 12:29N 40°39' W 074°03'2 5.1
2017-Dec-13 12:00N 40°39' W 074°06'4 8.6
2017-Dec-13 11:30N 40°39' W 074°11'0 0.3
2017-Dec-13 10:57N 40°38' W 074°11'2 4.5
2017-Dec-13 10:30N 40°39' W 074°09'1 1.6
2017-Dec-13 10:00N 40°38' W 074°08'1 2.7
2017-Dec-13 09:30N 40°40' W 074°09'2 1.4
2017-Dec-13 07:55N 40°42' W 074°09'0 0.0
2017-Dec-13 07:19N 40°42' W 074°09'0 0.0
2017-Dec-13 06:49N 40°42' W 074°09'0 0.0
2017-Dec-13 06:28N 40°42' W 074°09'0 0.0
2017-Dec-13 05:55N 40°42' W 074°09'0 0.0
2017-Dec-13 05:28N 40°42' W 074°09'0 0.0
2017-Dec-13 04:58N 40°42' W 074°09'0 0.0
2017-Dec-13 04:22N 40°42' W 074°09'0 0.0
2017-Dec-13 03:58N 40°42' W 074°09'0 0.0
2017-Dec-13 03:28N 40°42' W 074°09'0 0.0
2017-Dec-13 02:58N 40°42' W 074°09'0 0.0
2017-Dec-13 02:25N 40°42' W 074°09'0 0.0
2017-Dec-13 01:58N 40°42' W 074°09'0 0.0
2017-Dec-13 01:28N 40°42' W 074°09'0 0.0
2017-Dec-13 01:00N 40°42' W 074°09'1 2.8
2017-Dec-13 00:30N 40°41' W 074°08'2 4.2
2017-Dec-13 00:01N 40°39' W 074°07'4 7.0
2017-Dec-12 23:30N 40°40' W 074°03'2 4.6
2017-Dec-12 23:01N 40°41' W 074°00'2 4.9
2017-Dec-12 22:31N 40°40' W 074°03'4 7.9
2017-Dec-12 22:00N 40°38' W 074°08'2 4.1
2017-Dec-12 21:30N 40°39' W 074°05'0 0.0
2017-Dec-12 21:00N 40°39' W 074°05'0 0.3
2017-Dec-12 20:29N 40°39' W 074°05'2 4.5
2017-Dec-12 20:00N 40°38' W 074°03'2 3.6
2017-Dec-12 19:30N 40°39' W 074°03'3 5.0
2017-Dec-12 18:58N 40°41' W 074°00'0 0.0
2017-Dec-12 18:28N 40°41' W 074°00'0 0.0
2017-Dec-12 17:58N 40°41' W 074°00'0 0.0
2017-Dec-12 17:28N 40°41' W 074°00'0 0.0
2017-Dec-12 16:58N 40°41' W 074°00'0 0.0
2017-Dec-12 16:28N 40°41' W 074°00'0 0.0
2017-Dec-12 15:58N 40°41' W 074°00'0 0.0
2017-Dec-12 15:28N 40°41' W 074°00'0 0.0
2017-Dec-12 14:58N 40°41' W 074°00'0 0.0
2017-Dec-12 14:28N 40°41' W 074°00'0 0.0
2017-Dec-12 13:58N 40°41' W 074°00'0 0.0
2017-Dec-12 13:28N 40°41' W 074°00'0 0.0
2017-Dec-12 12:58N 40°41' W 074°00'0 0.0
2017-Dec-12 12:28N 40°41' W 074°00'0 0.0
2017-Dec-12 11:58N 40°41' W 074°00'0 0.0
2017-Dec-12 11:28N 40°41' W 074°00'0 0.3
2017-Dec-12 10:59N 40°41' W 074°00'0 0.0
2017-Dec-12 10:29N 40°41' W 074°00'0 0.0
2017-Dec-12 09:59N 40°41' W 074°00'0 0.0
2017-Dec-12 09:29N 40°41' W 074°00'0 0.0
2017-Dec-12 08:59N 40°41' W 074°00'0 0.0
2017-Dec-12 08:29N 40°41' W 074°00'0 0.0
2017-Dec-12 07:59N 40°41' W 074°00'0 0.0
2017-Dec-12 07:29N 40°41' W 074°00'0 0.0
2017-Dec-12 06:59N 40°41' W 074°00'0 0.0
2017-Dec-12 06:29N 40°41' W 074°00'0 0.0
2017-Dec-12 05:59N 40°41' W 074°00'0 0.0
2017-Dec-12 05:29N 40°41' W 074°00'0 0.0
2017-Dec-12 04:59N 40°41' W 074°00'0 0.0
2017-Dec-12 04:29N 40°41' W 074°00'0 0.0
2017-Dec-12 03:59N 40°41' W 074°00'0 0.0
2017-Dec-12 03:29N 40°41' W 074°00'0 0.0
2017-Dec-12 02:59N 40°41' W 074°00'0 0.0
2017-Dec-12 02:31N 40°41' W 074°00'0 0.0
2017-Dec-12 02:00N 40°41' W 074°00'1 2.3
2017-Dec-12 01:30N 40°41' W 074°02'4 7.3
2017-Dec-12 01:00N 40°39' W 074°06'2 4.7
2017-Dec-12 00:30N 40°40' W 074°08'2 4.1
2017-Dec-12 00:00N 40°42' W 074°09'0 0.1
2017-Dec-11 23:30N 40°42' W 074°09'0 0.0
2017-Dec-11 23:00N 40°42' W 074°09'0 0.0
2017-Dec-11 22:30N 40°42' W 074°09'0 0.0
2017-Dec-11 21:59N 40°42' W 074°09'3 6.9
2017-Dec-11 21:30N 40°39' W 074°08'0 0.1
2017-Dec-11 21:00N 40°38' W 074°08'0 0.0
2017-Dec-11 20:24N 40°38' W 074°08'0 0.0
2017-Dec-11 20:00N 40°38' W 074°08'0 0.0
2017-Dec-11 19:24N 40°38' W 074°08'0 0.0
2017-Dec-11 19:00N 40°38' W 074°08'0 0.0
2017-Dec-11 18:30N 40°38' W 074°08'0 0.0
2017-Dec-11 18:00N 40°38' W 074°08'0 0.0
2017-Dec-11 17:30N 40°38' W 074°08'0 0.0
2017-Dec-11 16:57N 40°38' W 074°08'0 0.0
2017-Dec-11 16:30N 40°38' W 074°08'0 0.0
2017-Dec-11 16:00N 40°38' W 074°08'0 0.0
2017-Dec-11 15:30N 40°38' W 074°08'0 0.0
2017-Dec-11 15:00N 40°38' W 074°08'0 0.0
2017-Dec-11 14:27N 40°38' W 074°08'0 0.0
2017-Dec-11 13:54N 40°38' W 074°08'0 0.0
2017-Dec-11 13:30N 40°38' W 074°08'0 0.0
2017-Dec-11 12:57N 40°38' W 074°08'0 0.0
2017-Dec-11 12:30N 40°38' W 074°08'0 0.0
2017-Dec-11 12:00N 40°38' W 074°08'0 0.0
2017-Dec-11 11:30N 40°38' W 074°08'0 0.0
2017-Dec-11 11:00N 40°38' W 074°08'0 0.0
2017-Dec-11 10:30N 40°38' W 074°08'0 0.0
2017-Dec-11 10:00N 40°38' W 074°08'0 0.0
2017-Dec-11 09:30N 40°38' W 074°08'0 0.0
2017-Dec-11 09:01N 40°38' W 074°08'0 0.0
2017-Dec-11 08:30N 40°38' W 074°08'0 0.0
2017-Dec-11 08:01N 40°38' W 074°08'0 0.0
2017-Dec-11 07:30N 40°38' W 074°08'0 0.0
2017-Dec-11 07:00N 40°38' W 074°08'0 0.0
2017-Dec-11 06:30N 40°38' W 074°08'0 0.0
2017-Dec-11 06:00N 40°38' W 074°08'0 0.0
2017-Dec-11 05:30N 40°38' W 074°08'0 0.0
2017-Dec-11 05:00N 40°38' W 074°08'0 0.0
2017-Dec-11 04:30N 40°38' W 074°08'0 0.0
2017-Dec-11 04:00N 40°38' W 074°08'1 1.4
2017-Dec-11 03:30N 40°39' W 074°09'4 8.5
2017-Dec-11 03:00N 40°43' W 074°07'0 0.2
2017-Dec-11 02:30N 40°43' W 074°07'0 0.0
2017-Dec-11 02:00N 40°43' W 074°07'0 0.0
2017-Dec-11 01:31N 40°43' W 074°07'0 0.0
2017-Dec-11 01:00N 40°43' W 074°07'0 0.0
2017-Dec-11 00:30N 40°43' W 074°07'0 0.0
2017-Dec-11 00:00N 40°43' W 074°07'0 0.1
2017-Dec-10 23:30N 40°43' W 074°07'0 0.9
2017-Dec-10 23:00N 40°42' W 074°07'4 7.8
2017-Dec-10 22:30N 40°39' W 074°09'1 1.7
2017-Dec-10 21:58N 40°38' W 074°08'0 0.0
2017-Dec-10 21:28N 40°38' W 074°08'0 0.0
2017-Dec-10 20:58N 40°38' W 074°08'0 0.0
2017-Dec-10 20:25N 40°38' W 074°08'0 0.0
2017-Dec-10 19:58N 40°38' W 074°08'0 0.0
2017-Dec-10 19:28N 40°38' W 074°08'0 0.0
2017-Dec-10 18:58N 40°38' W 074°08'0 0.0
2017-Dec-10 18:28N 40°38' W 074°08'0 0.0
2017-Dec-10 18:00N 40°38' W 074°08'3 6.6
2017-Dec-10 17:30N 40°42' W 074°07'1 2.1
2017-Dec-10 17:00N 40°43' W 074°07'0 0.1
2017-Dec-10 16:25N 40°43' W 074°07'1 3.5
2017-Dec-10 16:00N 40°41' W 074°08'3 5.4
2017-Dec-10 15:30N 40°39' W 074°08'0 0.4
2017-Dec-10 14:57N 40°38' W 074°08'0 0.0
2017-Dec-10 14:30N 40°38' W 074°08'0 0.0
2017-Dec-10 14:00N 40°38' W 074°08'0 0.0
2017-Dec-10 13:30N 40°38' W 074°08'0 0.0
2017-Dec-10 12:54N 40°38' W 074°08'0 0.0
2017-Dec-10 12:24N 40°38' W 074°08'0 0.0
2017-Dec-10 12:00N 40°38' W 074°08'0 0.0
2017-Dec-10 11:30N 40°38' W 074°08'0 0.0
2017-Dec-10 11:00N 40°38' W 074°08'0 0.0
2017-Dec-10 10:30N 40°38' W 074°08'0 0.0
2017-Dec-10 10:00N 40°38' W 074°08'0 0.0
2017-Dec-10 09:27N 40°38' W 074°08'0 0.0
2017-Dec-10 09:00N 40°38' W 074°08'0 0.0
2017-Dec-10 08:30N 40°38' W 074°08'0 0.0
2017-Dec-10 08:00N 40°38' W 074°08'0 0.0
2017-Dec-10 07:30N 40°38' W 074°08'0 0.0
2017-Dec-10 07:00N 40°38' W 074°08'0 0.0
2017-Dec-10 06:30N 40°38' W 074°08'0 0.0
2017-Dec-10 06:00N 40°38' W 074°08'0 0.0
2017-Dec-10 05:27N 40°38' W 074°08'0 0.0
2017-Dec-10 05:00N 40°38' W 074°08'0 0.0
2017-Dec-10 04:30N 40°38' W 074°08'0 0.0
2017-Dec-10 04:00N 40°38' W 074°08'0 0.0
2017-Dec-10 03:27N 40°38' W 074°08'0 0.0
2017-Dec-10 03:00N 40°38' W 074°08'0 0.0
2017-Dec-10 02:30N 40°38' W 074°08'0 0.0
2017-Dec-10 01:57N 40°38' W 074°08'0 0.0
2017-Dec-10 01:26N 40°38' W 074°08'0 0.0
2017-Dec-10 00:57N 40°38' W 074°08'0 0.0
2017-Dec-10 00:27N 40°38' W 074°08'0 0.0
2017-Dec-10 00:00N 40°38' W 074°08'0 0.0
2017-Dec-09 23:30N 40°38' W 074°08'0 0.0
2017-Dec-09 22:56N 40°38' W 074°08'0 0.0
2017-Dec-09 22:27N 40°38' W 074°08'0 0.0
2017-Dec-09 21:57N 40°38' W 074°08'0 0.0
2017-Dec-09 21:30N 40°38' W 074°08'2 3.4
2017-Dec-09 21:00N 40°39' W 074°10'1 2.8
2017-Dec-09 20:30N 40°38' W 074°12'1 1.5
2017-Dec-09 20:00N 40°39' W 074°11'2 4.8
2017-Dec-09 19:30N 40°38' W 074°08'0 0.0
2017-Dec-09 18:57N 40°38' W 074°08'0 0.0
2017-Dec-09 18:30N 40°38' W 074°08'0 0.0
2017-Dec-09 17:57N 40°38' W 074°08'0 0.0
2017-Dec-09 17:30N 40°38' W 074°08'0 0.0
2017-Dec-09 17:00N 40°38' W 074°08'0 0.0
2017-Dec-09 16:30N 40°38' W 074°08'0 0.0
2017-Dec-09 16:00N 40°38' W 074°08'3 5.7
2017-Dec-09 15:30N 40°39' W 074°04'5 9.6
2017-Dec-09 15:00N 40°43' W 074°01'510.2
2017-Dec-09 14:30N 40°48' W 073°59'0 0.2
2017-Dec-09 13:53N 40°48' W 073°59'0 0.0
2017-Dec-09 13:26N 40°48' W 073°59'0 0.0
2017-Dec-09 12:59N 40°48' W 073°59'0 0.0
2017-Dec-09 12:26N 40°48' W 073°59'0 0.0
2017-Dec-09 11:59N 40°48' W 073°59'0 0.0
2017-Dec-09 11:26N 40°48' W 073°59'0 0.0
2017-Dec-09 10:56N 40°48' W 073°59'0 0.0
2017-Dec-09 10:26N 40°48' W 073°59'0 0.0
2017-Dec-09 09:56N 40°48' W 073°59'0 0.2
2017-Dec-09 09:20N 40°48' W 073°59'0 0.2
2017-Dec-09 08:59N 40°48' W 073°59'0 0.1
2017-Dec-09 08:29N 40°48' W 073°59'0 0.0
2017-Dec-09 07:59N 40°48' W 073°59'0 0.0
2017-Dec-09 07:29N 40°48' W 073°59'0 0.0
2017-Dec-09 06:59N 40°48' W 073°59'0 0.0
2017-Dec-09 06:29N 40°48' W 073°59'0 0.1
2017-Dec-09 05:59N 40°48' W 073°59'0 0.0
2017-Dec-09 05:29N 40°48' W 073°59'0 0.0
2017-Dec-09 04:59N 40°48' W 073°59'0 0.0
2017-Dec-09 04:29N 40°48' W 073°59'0 0.1
2017-Dec-09 03:56N 40°48' W 073°59'0 0.2
2017-Dec-09 03:29N 40°48' W 073°59'0 0.1
2017-Dec-09 02:59N 40°48' W 073°59'0 0.0
2017-Dec-09 02:29N 40°48' W 073°59'0 0.0
2017-Dec-09 01:59N 40°48' W 073°59'0 0.0
2017-Dec-09 01:29N 40°48' W 073°59'0 0.0
2017-Dec-09 00:53N 40°48' W 073°59'0 0.0
2017-Dec-09 00:29N 40°48' W 073°59'0 0.0
2017-Dec-08 23:53N 40°48' W 073°59'0 0.0
2017-Dec-08 23:29N 40°48' W 073°59'0 0.0
2017-Dec-08 22:56N 40°48' W 073°59'0 0.1
2017-Dec-08 22:26N 40°48' W 073°59'0 0.0
2017-Dec-08 21:56N 40°48' W 073°59'0 0.1
2017-Dec-08 21:14N 40°48' W 073°59'0 0.3
2017-Dec-08 20:59N 40°48' W 073°59'0 0.1
2017-Dec-08 20:14N 40°48' W 073°59'0 0.1
2017-Dec-08 19:44N 40°48' W 073°59'0 0.0
2017-Dec-08 19:29N 40°48' W 073°59'0 0.0
2017-Dec-08 18:59N 40°48' W 073°59'0 0.0
2017-Dec-08 18:17N 40°48' W 073°59'0 0.0
2017-Dec-08 17:59N 40°48' W 073°59'0 0.0
2017-Dec-08 17:23N 40°48' W 073°59'0 0.0
2017-Dec-08 16:50N 40°48' W 073°59'0 0.1
2017-Dec-08 16:23N 40°48' W 073°59'0 0.0
2017-Dec-08 15:56N 40°48' W 073°59'0 0.0
2017-Dec-08 15:29N 40°48' W 073°59'0 0.0
2017-Dec-08 14:56N 40°48' W 073°59'0 0.2
2017-Dec-08 14:29N 40°48' W 073°59'0 0.2
2017-Dec-08 13:56N 40°48' W 073°59'0 0.1
2017-Dec-08 13:26N 40°48' W 073°59'0 0.0
2017-Dec-08 12:59N 40°48' W 073°59'0 0.0
2017-Dec-08 12:23N 40°48' W 073°59'0 0.0
2017-Dec-08 11:59N 40°48' W 073°59'0 0.0
2017-Dec-08 11:29N 40°48' W 073°59'0 0.0
2017-Dec-08 10:59N 40°48' W 073°59'0 0.0
2017-Dec-08 10:29N 40°48' W 073°59'0 0.0
2017-Dec-08 09:59N 40°48' W 073°59'0 0.0
2017-Dec-08 09:29N 40°48' W 073°59'0 0.0
2017-Dec-08 08:59N 40°48' W 073°59'0 0.0
2017-Dec-08 08:29N 40°48' W 073°59'0 0.1
2017-Dec-08 07:59N 40°48' W 073°59'0 0.2
2017-Dec-08 07:29N 40°48' W 073°59'0 0.0
2017-Dec-08 06:59N 40°48' W 073°59'0 0.0
2017-Dec-08 06:29N 40°48' W 073°59'0 0.0
2017-Dec-08 05:59N 40°48' W 073°59'0 0.0
2017-Dec-08 05:26N 40°48' W 073°59'0 0.0
2017-Dec-08 04:56N 40°48' W 073°59'0 0.0
2017-Dec-08 04:26N 40°48' W 073°59'0 0.0
2017-Dec-08 03:59N 40°48' W 073°59'0 0.0
2017-Dec-08 03:29N 40°48' W 073°59'0 0.1
2017-Dec-08 02:55N 40°48' W 073°59'0 0.3
2017-Dec-08 02:28N 40°48' W 073°59'0 0.1
2017-Dec-08 01:59N 40°48' W 073°59'0 0.0
2017-Dec-08 01:29N 40°48' W 073°59'0 0.0
2017-Dec-08 00:59N 40°48' W 073°59'0 0.0
2017-Dec-08 00:23N 40°48' W 073°59'0 0.0
2017-Dec-07 23:52N 40°48' W 073°59'0 0.0
2017-Dec-07 23:29N 40°48' W 073°59'0 0.0
2017-Dec-07 22:56N 40°48' W 073°59'0 0.0
2017-Dec-07 22:26N 40°48' W 073°59'0 0.0
2017-Dec-07 21:58N 40°48' W 073°59'0 0.0
2017-Dec-07 21:25N 40°48' W 073°59'0 0.1
2017-Dec-07 20:56N 40°48' W 073°59'0 0.1
2017-Dec-07 20:29N 40°48' W 073°59'0 0.2
2017-Dec-07 19:55N 40°48' W 073°59'0 0.1
2017-Dec-07 19:29N 40°48' W 073°59'0 0.1
2017-Dec-07 18:55N 40°48' W 073°59'0 0.0
2017-Dec-07 18:28N 40°48' W 073°59'0 0.0
2017-Dec-07 17:58N 40°48' W 073°59'0 0.0
2017-Dec-07 17:19N 40°48' W 073°59'0 0.0
2017-Dec-07 16:49N 40°48' W 073°59'0 0.0
2017-Dec-07 16:25N 40°48' W 073°59'0 0.0
2017-Dec-07 15:56N 40°48' W 073°59'0 0.0
2017-Dec-07 15:29N 40°48' W 073°59'0 0.0
2017-Dec-07 14:58N 40°48' W 073°59'0 0.0
2017-Dec-07 14:25N 40°48' W 073°59'0 0.0
2017-Dec-07 13:58N 40°48' W 073°59'0 0.1
2017-Dec-07 13:19N 40°48' W 073°59'0 0.3
2017-Dec-07 12:55N 40°48' W 073°59'0 0.1
2017-Dec-07 12:28N 40°48' W 073°59'0 0.0
2017-Dec-07 11:43N 40°48' W 073°59'0 0.0
2017-Dec-07 11:25N 40°48' W 073°59'0 0.0
2017-Dec-07 10:56N 40°48' W 073°59'0 0.0
2017-Dec-07 10:26N 40°48' W 073°59'0 0.0
2017-Dec-07 09:58N 40°48' W 073°59'0 0.0
2017-Dec-07 09:28N 40°48' W 073°59'0 0.0
2017-Dec-07 08:58N 40°48' W 073°59'0 0.0
2017-Dec-07 08:29N 40°48' W 073°59'0 0.1
2017-Dec-07 07:58N 40°48' W 073°59'0 0.2
2017-Dec-07 07:28N 40°48' W 073°59'0 0.1
2017-Dec-07 06:55N 40°48' W 073°59'0 0.0
2017-Dec-07 06:28N 40°48' W 073°59'0 0.0
2017-Dec-07 05:58N 40°48' W 073°59'0 0.0
2017-Dec-07 05:28N 40°48' W 073°59'0 0.0
2017-Dec-07 04:55N 40°48' W 073°59'0 0.0
2017-Dec-07 04:19N 40°48' W 073°59'0 0.0
2017-Dec-07 03:55N 40°48' W 073°59'0 0.1
2017-Dec-07 03:28N 40°48' W 073°59'0 0.0
2017-Dec-07 02:55N 40°48' W 073°59'0 0.0
2017-Dec-07 02:28N 40°48' W 073°59'0 0.0
2017-Dec-07 01:58N 40°48' W 073°59'0 0.0
2017-Dec-07 01:25N 40°48' W 073°59'0 0.1
2017-Dec-07 00:58N 40°48' W 073°59'0 0.2
2017-Dec-07 00:25N 40°48' W 073°59'0 0.1
2017-Dec-06 23:52N 40°48' W 073°59'0 0.0
2017-Dec-06 23:25N 40°48' W 073°59'0 0.0
2017-Dec-06 22:52N 40°48' W 073°59'0 0.0
2017-Dec-06 22:25N 40°48' W 073°59'0 0.0
2017-Dec-06 21:52N 40°48' W 073°59'0 0.0
2017-Dec-06 21:28N 40°48' W 073°59'0 0.0
2017-Dec-06 20:58N 40°48' W 073°59'  
Track history (hours):
 
Tides and Currents Weather Stations Pressure Air Temp Water Temp Dewpoint Dewpoint Depression Visibility Wind Speed Wind Dir Waves Ship Positions

Jennifer Turecamo

Owner: MORAN TOWING CORPORATION, New Canaan, CT. More information available from US FCC via Universal Licensing System and Coast Guard Vessel Documentation Center.

Last reported at 2017-Dec-15 04:30 UTC. Time now 2017-Dec-15 04:32 UTC.
Position N 40°39' W 074°05'.

Length 40 m; draft 5.3 m.

Type: Tug. MMSI: 367141250.

Date/timePositionNaut miles runAvg speedWind from/ knotsBaromVisibWave heightAir tempDewpointWater temp
2017-Dec-15 04:30N 40°39' W 074°05'1 1.9
2017-Dec-15 04:00N 40°40' W 074°04'0 0.3
2017-Dec-15 02:29N 40°40' W 074°04'0 0.0
2017-Dec-15 00:59N 40°40' W 074°04'0 0.0
2017-Dec-15 00:29N 40°40' W 074°04'1 0.3
2017-Dec-14 18:30N 40°39' W 074°03'0 0.1
2017-Dec-14 18:00N 40°39' W 074°03'0 0.1
2017-Dec-14 17:30N 40°39' W 074°03'0 0.0
2017-Dec-14 17:00N 40°39' W 074°03'0 0.1
2017-Dec-14 16:30N 40°39' W 074°03'0 0.0
2017-Dec-14 15:57N 40°39' W 074°03'0 0.0
2017-Dec-14 15:00N 40°39' W 074°03'0 0.0
2017-Dec-14 14:30N 40°39' W 074°03'0 0.1
2017-Dec-14 14:00N 40°39' W 074°03'0 0.2
2017-Dec-14 13:31N 40°39' W 074°03'2 2.8
2017-Dec-14 12:57N 40°40' W 074°04'0 0.0
2017-Dec-14 12:30N 40°40' W 074°04'0 0.0
2017-Dec-14 12:00N 40°40' W 074°04'0 0.0
2017-Dec-14 11:31N 40°40' W 074°04'0 0.0
2017-Dec-14 10:57N 40°40' W 074°04'0 0.0
2017-Dec-14 10:30N 40°40' W 074°04'0 0.3
2017-Dec-14 10:00N 40°40' W 074°04'0 0.0
2017-Dec-14 09:30N 40°40' W 074°04'0 0.0
2017-Dec-14 09:00N 40°40' W 074°04'0 0.0
2017-Dec-14 08:30N 40°40' W 074°04'0 0.0
2017-Dec-14 08:00N 40°40' W 074°04'0 0.0
2017-Dec-14 07:30N 40°40' W 074°04'0 0.0
2017-Dec-14 07:00N 40°40' W 074°04'0 0.0
2017-Dec-14 06:30N 40°40' W 074°04'0 0.0
2017-Dec-14 06:00N 40°40' W 074°04'0 0.0
2017-Dec-14 05:30N 40°40' W 074°04'0 0.0
2017-Dec-14 05:00N 40°40' W 074°04'0 0.0
2017-Dec-14 04:30N 40°40' W 074°04'1 2.1
2017-Dec-14 04:01N 40°39' W 074°04'1 1.6
2017-Dec-14 03:30N 40°39' W 074°05'0 1.0
2017-Dec-14 03:00N 40°39' W 074°05'1 1.3
2017-Dec-14 02:29N 40°40' W 074°04'0 0.0
2017-Dec-14 01:59N 40°40' W 074°04'0 0.0
2017-Dec-14 01:29N 40°40' W 074°04'0 0.0
2017-Dec-14 00:59N 40°40' W 074°04'0 0.0
2017-Dec-14 00:31N 40°40' W 074°04'3 5.9
2017-Dec-14 00:00N 40°39' W 074°08'4 7.6
2017-Dec-13 23:30N 40°39' W 074°03'0 0.5
2017-Dec-13 22:59N 40°40' W 074°03'0 0.0
2017-Dec-13 22:29N 40°40' W 074°03'0 0.0
2017-Dec-13 21:59N 40°40' W 074°03'0 0.0
2017-Dec-13 21:29N 40°39' W 074°03'0 0.0
2017-Dec-13 20:59N 40°40' W 074°03'0 0.0
2017-Dec-13 20:29N 40°39' W 074°03'0 0.0
2017-Dec-13 19:56N 40°39' W 074°03'0 0.0
2017-Dec-13 19:29N 40°39' W 074°03'0 0.0
2017-Dec-13 18:59N 40°39' W 074°03'0 0.0
2017-Dec-13 18:29N 40°39' W 074°03'0 0.0
2017-Dec-13 17:59N 40°39' W 074°03'0 0.0
2017-Dec-13 17:29N 40°39' W 074°03'0 0.0
2017-Dec-13 16:59N 40°39' W 074°03'0 0.0
2017-Dec-13 16:29N 40°39' W 074°03'0 0.0
2017-Dec-13 15:59N 40°39' W 074°03'0 0.0
2017-Dec-13 15:29N 40°39' W 074°03'0 0.0
2017-Dec-13 14:59N 40°39' W 074°03'0 0.0
2017-Dec-13 14:29N 40°39' W 074°03'0 0.0
2017-Dec-13 13:56N 40°39' W 074°03'0 0.0
2017-Dec-13 13:26N 40°39' W 074°03'0 0.0
2017-Dec-13 12:56N 40°39' W 074°03'0 0.0
2017-Dec-13 12:29N 40°39' W 074°03'2 5.1
2017-Dec-13 12:00N 40°39' W 074°06'4 8.6
2017-Dec-13 11:30N 40°39' W 074°11'0 0.3
2017-Dec-13 10:57N 40°38' W 074°11'2 4.5
2017-Dec-13 10:30N 40°39' W 074°09'1 1.6
2017-Dec-13 10:00N 40°38' W 074°08'1 2.7
2017-Dec-13 09:30N 40°40' W 074°09'2 1.4
2017-Dec-13 07:55N 40°42' W 074°09'0 0.0
2017-Dec-13 07:19N 40°42' W 074°09'0 0.0
2017-Dec-13 06:49N 40°42' W 074°09'0 0.0
2017-Dec-13 06:28N 40°42' W 074°09'0 0.0
2017-Dec-13 05:55N 40°42' W 074°09'0 0.0
2017-Dec-13 05:28N 40°42' W 074°09'0 0.0
2017-Dec-13 04:58N 40°42' W 074°09'0 0.0
2017-Dec-13 04:22N 40°42' W 074°09'0 0.0
2017-Dec-13 03:58N 40°42' W 074°09'0 0.0
2017-Dec-13 03:28N 40°42' W 074°09'0 0.0
2017-Dec-13 02:58N 40°42' W 074°09'0 0.0
2017-Dec-13 02:25N 40°42' W 074°09'0 0.0
2017-Dec-13 01:58N 40°42' W 074°09'0 0.0
2017-Dec-13 01:28N 40°42' W 074°09'0 0.0
2017-Dec-13 01:00N 40°42' W 074°09'1 2.8
2017-Dec-13 00:30N 40°41' W 074°08'2 4.2
2017-Dec-13 00:01N 40°39' W 074°07'4 7.0
2017-Dec-12 23:30N 40°40' W 074°03'2 4.6
2017-Dec-12 23:01N 40°41' W 074°00'2 4.9
2017-Dec-12 22:31N 40°40' W 074°03'4 7.9
2017-Dec-12 22:00N 40°38' W 074°08'2 4.1
2017-Dec-12 21:30N 40°39' W 074°05'0 0.0
2017-Dec-12 21:00N 40°39' W 074°05'0 0.3
2017-Dec-12 20:29N 40°39' W 074°05'2 4.5
2017-Dec-12 20:00N 40°38' W 074°03'2 3.6
2017-Dec-12 19:30N 40°39' W 074°03'3 5.0
2017-Dec-12 18:58N 40°41' W 074°00'0 0.0
2017-Dec-12 18:28N 40°41' W 074°00'0 0.0
2017-Dec-12 17:58N 40°41' W 074°00'0 0.0
2017-Dec-12 17:28N 40°41' W 074°00'0 0.0
2017-Dec-12 16:58N 40°41' W 074°00'0 0.0
2017-Dec-12 16:28N 40°41' W 074°00'0 0.0
2017-Dec-12 15:58N 40°41' W 074°00'0 0.0
2017-Dec-12 15:28N 40°41' W 074°00'0 0.0
2017-Dec-12 14:58N 40°41' W 074°00'0 0.0
2017-Dec-12 14:28N 40°41' W 074°00'0 0.0
2017-Dec-12 13:58N 40°41' W 074°00'0 0.0
2017-Dec-12 13:28N 40°41' W 074°00'0 0.0
2017-Dec-12 12:58N 40°41' W 074°00'0 0.0
2017-Dec-12 12:28N 40°41' W 074°00'0 0.0
2017-Dec-12 11:58N 40°41' W 074°00'0 0.0
2017-Dec-12 11:28N 40°41' W 074°00'0 0.3
2017-Dec-12 10:59N 40°41' W 074°00'0 0.0
2017-Dec-12 10:29N 40°41' W 074°00'0 0.0
2017-Dec-12 09:59N 40°41' W 074°00'0 0.0
2017-Dec-12 09:29N 40°41' W 074°00'0 0.0
2017-Dec-12 08:59N 40°41' W 074°00'0 0.0
2017-Dec-12 08:29N 40°41' W 074°00'0 0.0
2017-Dec-12 07:59N 40°41' W 074°00'0 0.0
2017-Dec-12 07:29N 40°41' W 074°00'0 0.0
2017-Dec-12 06:59N 40°41' W 074°00'0 0.0
2017-Dec-12 06:29N 40°41' W 074°00'0 0.0
2017-Dec-12 05:59N 40°41' W 074°00'0 0.0
2017-Dec-12 05:29N 40°41' W 074°00'0 0.0
2017-Dec-12 04:59N 40°41' W 074°00'0 0.0
2017-Dec-12 04:29N 40°41' W 074°00'0 0.0
2017-Dec-12 03:59N 40°41' W 074°00'0 0.0
2017-Dec-12 03:29N 40°41' W 074°00'0 0.0
2017-Dec-12 02:59N 40°41' W 074°00'0 0.0
2017-Dec-12 02:31N 40°41' W 074°00'0 0.0
2017-Dec-12 02:00N 40°41' W 074°00'1 2.3
2017-Dec-12 01:30N 40°41' W 074°02'4 7.3
2017-Dec-12 01:00N 40°39' W 074°06'2 4.7
2017-Dec-12 00:30N 40°40' W 074°08'2 4.1
2017-Dec-12 00:00N 40°42' W 074°09'0 0.1
2017-Dec-11 23:30N 40°42' W 074°09'0 0.0
2017-Dec-11 23:00N 40°42' W 074°09'0 0.0
2017-Dec-11 22:30N 40°42' W 074°09'0 0.0
2017-Dec-11 21:59N 40°42' W 074°09'3 6.9
2017-Dec-11 21:30N 40°39' W 074°08'0 0.1
2017-Dec-11 21:00N 40°38' W 074°08'0 0.0
2017-Dec-11 20:24N 40°38' W 074°08'0 0.0
2017-Dec-11 20:00N 40°38' W 074°08'0 0.0
2017-Dec-11 19:24N 40°38' W 074°08'0 0.0
2017-Dec-11 19:00N 40°38' W 074°08'0 0.0
2017-Dec-11 18:30N 40°38' W 074°08'0 0.0
2017-Dec-11 18:00N 40°38' W 074°08'0 0.0
2017-Dec-11 17:30N 40°38' W 074°08'0 0.0
2017-Dec-11 16:57N 40°38' W 074°08'0 0.0
2017-Dec-11 16:30N 40°38' W 074°08'0 0.0
2017-Dec-11 16:00N 40°38' W 074°08'0 0.0
2017-Dec-11 15:30N 40°38' W 074°08'0 0.0
2017-Dec-11 15:00N 40°38' W 074°08'0 0.0
2017-Dec-11 14:27N 40°38' W 074°08'0 0.0
2017-Dec-11 13:54N 40°38' W 074°08'0 0.0
2017-Dec-11 13:30N 40°38' W 074°08'0 0.0
2017-Dec-11 12:57N 40°38' W 074°08'0 0.0
2017-Dec-11 12:30N 40°38' W 074°08'0 0.0
2017-Dec-11 12:00N 40°38' W 074°08'0 0.0
2017-Dec-11 11:30N 40°38' W 074°08'0 0.0
2017-Dec-11 11:00N 40°38' W 074°08'0 0.0
2017-Dec-11 10:30N 40°38' W 074°08'0 0.0
2017-Dec-11 10:00N 40°38' W 074°08'0 0.0
2017-Dec-11 09:30N 40°38' W 074°08'0 0.0
2017-Dec-11 09:01N 40°38' W 074°08'0 0.0
2017-Dec-11 08:30N 40°38' W 074°08'0 0.0
2017-Dec-11 08:01N 40°38' W 074°08'0 0.0
2017-Dec-11 07:30N 40°38' W 074°08'0 0.0
2017-Dec-11 07:00N 40°38' W 074°08'0 0.0
2017-Dec-11 06:30N 40°38' W 074°08'0 0.0
2017-Dec-11 06:00N 40°38' W 074°08'0 0.0
2017-Dec-11 05:30N 40°38' W 074°08'0 0.0
2017-Dec-11 05:00N 40°38' W 074°08'0 0.0
2017-Dec-11 04:30N 40°38' W 074°08'0 0.0
2017-Dec-11 04:00N 40°38' W 074°08'1 1.4
2017-Dec-11 03:30N 40°39' W 074°09'4 8.5
2017-Dec-11 03:00N 40°43' W 074°07'0 0.2
2017-Dec-11 02:30N 40°43' W 074°07'0 0.0
2017-Dec-11 02:00N 40°43' W 074°07'0 0.0
2017-Dec-11 01:31N 40°43' W 074°07'0 0.0
2017-Dec-11 01:00N 40°43' W 074°07'0 0.0
2017-Dec-11 00:30N 40°43' W 074°07'0 0.0
2017-Dec-11 00:00N 40°43' W 074°07'0 0.1
2017-Dec-10 23:30N 40°43' W 074°07'0 0.9
2017-Dec-10 23:00N 40°42' W 074°07'4 7.8
2017-Dec-10 22:30N 40°39' W 074°09'1 1.7
2017-Dec-10 21:58N 40°38' W 074°08'0 0.0
2017-Dec-10 21:28N 40°38' W 074°08'0 0.0
2017-Dec-10 20:58N 40°38' W 074°08'0 0.0
2017-Dec-10 20:25N 40°38' W 074°08'0 0.0
2017-Dec-10 19:58N 40°38' W 074°08'0 0.0
2017-Dec-10 19:28N 40°38' W 074°08'0 0.0
2017-Dec-10 18:58N 40°38' W 074°08'0 0.0
2017-Dec-10 18:28N 40°38' W 074°08'0 0.0
2017-Dec-10 18:00N 40°38' W 074°08'3 6.6
2017-Dec-10 17:30N 40°42' W 074°07'1 2.1
2017-Dec-10 17:00N 40°43' W 074°07'0 0.1
2017-Dec-10 16:25N 40°43' W 074°07'1 3.5
2017-Dec-10 16:00N 40°41' W 074°08'3 5.4
2017-Dec-10 15:30N 40°39' W 074°08'0 0.4
2017-Dec-10 14:57N 40°38' W 074°08'0 0.0
2017-Dec-10 14:30N 40°38' W 074°08'0 0.0
2017-Dec-10 14:00N 40°38' W 074°08'0 0.0
2017-Dec-10 13:30N 40°38' W 074°08'0 0.0
2017-Dec-10 12:54N 40°38' W 074°08'0 0.0
2017-Dec-10 12:24N 40°38' W 074°08'0 0.0
2017-Dec-10 12:00N 40°38' W 074°08'0 0.0
2017-Dec-10 11:30N 40°38' W 074°08'0 0.0
2017-Dec-10 11:00N 40°38' W 074°08'0 0.0
2017-Dec-10 10:30N 40°38' W 074°08'0 0.0
2017-Dec-10 10:00N 40°38' W 074°08'0 0.0
2017-Dec-10 09:27N 40°38' W 074°08'0 0.0
2017-Dec-10 09:00N 40°38' W 074°08'0 0.0
2017-Dec-10 08:30N 40°38' W 074°08'0 0.0
2017-Dec-10 08:00N 40°38' W 074°08'0 0.0
2017-Dec-10 07:30N 40°38' W 074°08'0 0.0
2017-Dec-10 07:00N 40°38' W 074°08'0 0.0
2017-Dec-10 06:30N 40°38' W 074°08'0 0.0
2017-Dec-10 06:00N 40°38' W 074°08'0 0.0
2017-Dec-10 05:27N 40°38' W 074°08'0 0.0
2017-Dec-10 05:00N 40°38' W 074°08'0 0.0
2017-Dec-10 04:30N 40°38' W 074°08'0 0.0
2017-Dec-10 04:00N 40°38' W 074°08'0 0.0
2017-Dec-10 03:27N 40°38' W 074°08'0 0.0
2017-Dec-10 03:00N 40°38' W 074°08'0 0.0
2017-Dec-10 02:30N 40°38' W 074°08'0 0.0
2017-Dec-10 01:57N 40°38' W 074°08'0 0.0
2017-Dec-10 01:26N 40°38' W 074°08'0 0.0
2017-Dec-10 00:57N 40°38' W 074°08'0 0.0
2017-Dec-10 00:27N 40°38' W 074°08'0 0.0
2017-Dec-10 00:00N 40°38' W 074°08'0 0.0
2017-Dec-09 23:30N 40°38' W 074°08'0 0.0
2017-Dec-09 22:56N 40°38' W 074°08'0 0.0
2017-Dec-09 22:27N 40°38' W 074°08'0 0.0
2017-Dec-09 21:57N 40°38' W 074°08'0 0.0
2017-Dec-09 21:30N 40°38' W 074°08'2 3.4
2017-Dec-09 21:00N 40°39' W 074°10'1 2.8
2017-Dec-09 20:30N 40°38' W 074°12'1 1.5
2017-Dec-09 20:00N 40°39' W 074°11'2 4.8
2017-Dec-09 19:30N 40°38' W 074°08'0 0.0
2017-Dec-09 18:57N 40°38' W 074°08'0 0.0
2017-Dec-09 18:30N 40°38' W 074°08'0 0.0
2017-Dec-09 17:57N 40°38' W 074°08'0 0.0
2017-Dec-09 17:30N 40°38' W 074°08'0 0.0
2017-Dec-09 17:00N 40°38' W 074°08'0 0.0
2017-Dec-09 16:30N 40°38' W 074°08'0 0.0
2017-Dec-09 16:00N 40°38' W 074°08'3 5.7
2017-Dec-09 15:30N 40°39' W 074°04'5 9.6
2017-Dec-09 15:00N 40°43' W 074°01'510.2
2017-Dec-09 14:30N 40°48' W 073°59'0 0.2
2017-Dec-09 13:53N 40°48' W 073°59'0 0.0
2017-Dec-09 13:26N 40°48' W 073°59'0 0.0
2017-Dec-09 12:59N 40°48' W 073°59'0 0.0
2017-Dec-09 12:26N 40°48' W 073°59'0 0.0
2017-Dec-09 11:59N 40°48' W 073°59'0 0.0
2017-Dec-09 11:26N 40°48' W 073°59'0 0.0
2017-Dec-09 10:56N 40°48' W 073°59'0 0.0
2017-Dec-09 10:26N 40°48' W 073°59'0 0.0
2017-Dec-09 09:56N 40°48' W 073°59'0 0.2
2017-Dec-09 09:20N 40°48' W 073°59'0 0.2
2017-Dec-09 08:59N 40°48' W 073°59'0 0.1
2017-Dec-09 08:29N 40°48' W 073°59'0 0.0
2017-Dec-09 07:59N 40°48' W 073°59'0 0.0
2017-Dec-09 07:29N 40°48' W 073°59'0 0.0
2017-Dec-09 06:59N 40°48' W 073°59'0 0.0
2017-Dec-09 06:29N 40°48' W 073°59'0 0.1
2017-Dec-09 05:59N 40°48' W 073°59'0 0.0
2017-Dec-09 05:29N 40°48' W 073°59'0 0.0
2017-Dec-09 04:59N 40°48' W 073°59'0 0.0
2017-Dec-09 04:29N 40°48' W 073°59'0 0.1
2017-Dec-09 03:56N 40°48' W 073°59'0 0.2
2017-Dec-09 03:29N 40°48' W 073°59'0 0.1
2017-Dec-09 02:59N 40°48' W 073°59'0 0.0
2017-Dec-09 02:29N 40°48' W 073°59'0 0.0
2017-Dec-09 01:59N 40°48' W 073°59'0 0.0
2017-Dec-09 01:29N 40°48' W 073°59'0 0.0
2017-Dec-09 00:53N 40°48' W 073°59'0 0.0
2017-Dec-09 00:29N 40°48' W 073°59'0 0.0
2017-Dec-08 23:53N 40°48' W 073°59'0 0.0
2017-Dec-08 23:29N 40°48' W 073°59'0 0.0
2017-Dec-08 22:56N 40°48' W 073°59'0 0.1
2017-Dec-08 22:26N 40°48' W 073°59'0 0.0
2017-Dec-08 21:56N 40°48' W 073°59'0 0.1
2017-Dec-08 21:14N 40°48' W 073°59'0 0.3
2017-Dec-08 20:59N 40°48' W 073°59'0 0.1
2017-Dec-08 20:14N 40°48' W 073°59'0 0.1
2017-Dec-08 19:44N 40°48' W 073°59'0 0.0
2017-Dec-08 19:29N 40°48' W 073°59'0 0.0
2017-Dec-08 18:59N 40°48' W 073°59'0 0.0
2017-Dec-08 18:17N 40°48' W 073°59'0 0.0
2017-Dec-08 17:59N 40°48' W 073°59'0 0.0
2017-Dec-08 17:23N 40°48' W 073°59'0 0.0
2017-Dec-08 16:50N 40°48' W 073°59'0 0.1
2017-Dec-08 16:23N 40°48' W 073°59'0 0.0
2017-Dec-08 15:56N 40°48' W 073°59'0 0.0
2017-Dec-08 15:29N 40°48' W 073°59'0 0.0
2017-Dec-08 14:56N 40°48' W 073°59'0 0.2
2017-Dec-08 14:29N 40°48' W 073°59'0 0.2
2017-Dec-08 13:56N 40°48' W 073°59'0 0.1
2017-Dec-08 13:26N 40°48' W 073°59'0 0.0
2017-Dec-08 12:59N 40°48' W 073°59'0 0.0
2017-Dec-08 12:23N 40°48' W 073°59'0 0.0
2017-Dec-08 11:59N 40°48' W 073°59'0 0.0
2017-Dec-08 11:29N 40°48' W 073°59'0 0.0
2017-Dec-08 10:59N 40°48' W 073°59'0 0.0
2017-Dec-08 10:29N 40°48' W 073°59'0 0.0
2017-Dec-08 09:59N 40°48' W 073°59'0 0.0
2017-Dec-08 09:29N 40°48' W 073°59'0 0.0
2017-Dec-08 08:59N 40°48' W 073°59'0 0.0
2017-Dec-08 08:29N 40°48' W 073°59'0 0.1
2017-Dec-08 07:59N 40°48' W 073°59'0 0.2
2017-Dec-08 07:29N 40°48' W 073°59'0 0.0
2017-Dec-08 06:59N 40°48' W 073°59'0 0.0
2017-Dec-08 06:29N 40°48' W 073°59'0 0.0
2017-Dec-08 05:59N 40°48' W 073°59'0 0.0
2017-Dec-08 05:26N 40°48' W 073°59'0 0.0
2017-Dec-08 04:56N 40°48' W 073°59'0 0.0
2017-Dec-08 04:26N 40°48' W 073°59'0 0.0
2017-Dec-08 03:59N 40°48' W 073°59'0 0.0
2017-Dec-08 03:29N 40°48' W 073°59'0 0.1
2017-Dec-08 02:55N 40°48' W 073°59'0 0.3
2017-Dec-08 02:28N 40°48' W 073°59'0 0.1
2017-Dec-08 01:59N 40°48' W 073°59'0 0.0
2017-Dec-08 01:29N 40°48' W 073°59'0 0.0
2017-Dec-08 00:59N 40°48' W 073°59'0 0.0
2017-Dec-08 00:23N 40°48' W 073°59'0 0.0
2017-Dec-07 23:52N 40°48' W 073°59'0 0.0
2017-Dec-07 23:29N 40°48' W 073°59'0 0.0
2017-Dec-07 22:56N 40°48' W 073°59'0 0.0
2017-Dec-07 22:26N 40°48' W 073°59'0 0.0
2017-Dec-07 21:58N 40°48' W 073°59'0 0.0
2017-Dec-07 21:25N 40°48' W 073°59'0 0.1
2017-Dec-07 20:56N 40°48' W 073°59'0 0.1
2017-Dec-07 20:29N 40°48' W 073°59'0 0.2
2017-Dec-07 19:55N 40°48' W 073°59'0 0.1
2017-Dec-07 19:29N 40°48' W 073°59'0 0.1
2017-Dec-07 18:55N 40°48' W 073°59'0 0.0
2017-Dec-07 18:28N 40°48' W 073°59'0 0.0
2017-Dec-07 17:58N 40°48' W 073°59'0 0.0
2017-Dec-07 17:19N 40°48' W 073°59'0 0.0
2017-Dec-07 16:49N 40°48' W 073°59'0 0.0
2017-Dec-07 16:25N 40°48' W 073°59'0 0.0
2017-Dec-07 15:56N 40°48' W 073°59'0 0.0
2017-Dec-07 15:29N 40°48' W 073°59'0 0.0
2017-Dec-07 14:58N 40°48' W 073°59'0 0.0
2017-Dec-07 14:25N 40°48' W 073°59'0 0.0
2017-Dec-07 13:58N 40°48' W 073°59'0 0.1
2017-Dec-07 13:19N 40°48' W 073°59'0 0.3
2017-Dec-07 12:55N 40°48' W 073°59'0 0.1
2017-Dec-07 12:28N 40°48' W 073°59'0 0.0
2017-Dec-07 11:43N 40°48' W 073°59'0 0.0
2017-Dec-07 11:25N 40°48' W 073°59'0 0.0
2017-Dec-07 10:56N 40°48' W 073°59'0 0.0
2017-Dec-07 10:26N 40°48' W 073°59'0 0.0
2017-Dec-07 09:58N 40°48' W 073°59'0 0.0
2017-Dec-07 09:28N 40°48' W 073°59'0 0.0
2017-Dec-07 08:58N 40°48' W 073°59'0 0.0
2017-Dec-07 08:29N 40°48' W 073°59'0 0.1
2017-Dec-07 07:58N 40°48' W 073°59'0 0.2
2017-Dec-07 07:28N 40°48' W 073°59'0 0.1
2017-Dec-07 06:55N 40°48' W 073°59'0 0.0
2017-Dec-07 06:28N 40°48' W 073°59'0 0.0
2017-Dec-07 05:58N 40°48' W 073°59'0 0.0
2017-Dec-07 05:28N 40°48' W 073°59'0 0.0
2017-Dec-07 04:55N 40°48' W 073°59'0 0.0
2017-Dec-07 04:19N 40°48' W 073°59'0 0.0
2017-Dec-07 03:55N 40°48' W 073°59'0 0.1
2017-Dec-07 03:28N 40°48' W 073°59'0 0.0
2017-Dec-07 02:55N 40°48' W 073°59'0 0.0
2017-Dec-07 02:28N 40°48' W 073°59'0 0.0
2017-Dec-07 01:58N 40°48' W 073°59'0 0.0
2017-Dec-07 01:25N 40°48' W 073°59'0 0.1
2017-Dec-07 00:58N 40°48' W 073°59'0 0.2
2017-Dec-07 00:25N 40°48' W 073°59'0 0.1
2017-Dec-06 23:52N 40°48' W 073°59'0 0.0
2017-Dec-06 23:25N 40°48' W 073°59'0 0.0
2017-Dec-06 22:52N 40°48' W 073°59'0 0.0
2017-Dec-06 22:25N 40°48' W 073°59'0 0.0
2017-Dec-06 21:52N 40°48' W 073°59'0 0.0
2017-Dec-06 21:28N 40°48' W 073°59'0 0.0
2017-Dec-06 20:58N 40°48' W 073°59'  

Dump ship's entire track history